Time;durP1;ratioP1;P1;durP2;ratioP2;P2;SDS_P1;SDS_P2;PMS_P1;PMS_P2;Temp;Humidity;BMP_temperature;BMP_pressure;BME280_temperature;BME280_humidity;BME280_pressure;Samples;Min_cycle;Max_cycle;Signal;HPM_P1;HPM_P2
2022/07/15 00:00:37;;;;;;;8.63;2.17;;;14.00;99.90;;;;;;5072635;28;20044;-49
2022/07/15 00:03:03;;;;;;;14.25;2.22;;;14.10;99.90;;;;;;5072249;28;20079;-51
2022/07/15 00:05:29;;;;;;;9.27;2.03;;;13.90;99.90;;;;;;5072458;28;20489;-47
2022/07/15 00:07:55;;;;;;;10.10;2.20;;;14.00;99.90;;;;;;5072286;28;20044;-47
2022/07/15 00:10:23;;;;;;;12.40;1.77;;;14.00;99.90;;;;;;5071366;28;20075;-49
2022/07/15 00:12:55;;;;;;;15.35;3.35;;;14.00;99.90;;;;;;5070806;28;20048;-51
2022/07/15 00:15:22;;;;;;;;;;;14.00;99.90;;;;;;5071450;28;20102;-47
2022/07/15 00:17:48;;;;;;;8.57;1.90;;;14.00;99.90;;;;;;5072452;28;19967;-48
2022/07/15 00:20:14;;;;;;;13.50;2.03;;;14.10;99.90;;;;;;5069071;28;20520;-49
2022/07/15 00:22:42;;;;;;;11.25;1.95;;;14.10;99.90;;;;;;5052146;28;20036;-48
2022/07/15 00:25:09;;;;;;;11.00;2.55;;;14.10;99.90;;;;;;5051815;28;20057;-50
2022/07/15 00:27:36;;;;;;;7.55;1.40;;;14.30;99.90;;;;;;5052319;28;20094;-45
2022/07/15 00:30:05;;;;;;;8.02;1.88;;;14.10;99.90;;;;;;5051924;28;20044;-46
2022/07/15 00:32:31;;;;;;;9.93;1.90;;;14.20;99.90;;;;;;5052246;28;20041;-47
2022/07/15 00:34:56;;;;;;;9.93;2.00;;;14.10;99.90;;;;;;5052057;28;20397;-48
2022/07/15 00:37:22;;;;;;;10.18;1.60;;;14.10;99.90;;;;;;5051718;28;20048;-50
2022/07/15 00:39:47;;;;;;;10.30;1.77;;;14.10;99.90;;;;;;5050571;28;20037;-46
2022/07/15 00:42:59;;;;;;;10.45;1.58;;;14.20;99.90;;;;;;5051860;28;20048;-50
2022/07/15 00:45:00;;;;;;;7.88;1.77;;;14.20;99.90;;;;;;5051003;28;20452;-49
2022/07/15 00:47:26;;;;;;;8.63;1.60;;;14.30;99.90;;;;;;5051793;28;20503;-50
2022/07/15 00:49:52;;;;;;;6.78;1.48;;;14.30;99.90;;;;;;5052060;28;20045;-46
2022/07/15 00:52:19;;;;;;;9.80;1.92;;;14.20;99.90;;;;;;5065488;28;20040;-47
2022/07/15 00:54:49;;;;;;;13.57;1.55;;;14.20;99.90;;;;;;5070626;28;20036;-46
2022/07/15 00:57:16;;;;;;;9.40;1.42;;;14.20;99.90;;;;;;5072109;28;20040;-47
2022/07/15 00:59:43;;;;;;;10.57;1.60;;;14.10;99.90;;;;;;5071893;28;20040;-46
2022/07/15 01:02:10;;;;;;;8.15;1.30;;;14.10;99.90;;;;;;5071758;28;20057;-46
2022/07/15 01:04:38;;;;;;;9.80;1.45;;;14.10;99.90;;;;;;5071600;28;20044;-46
2022/07/15 01:07:04;;;;;;;6.43;1.33;;;14.10;99.90;;;;;;5053719;28;20392;-46
2022/07/15 01:09:30;;;;;;;11.25;1.83;;;14.10;99.90;;;;;;5071423;28;20048;-49
2022/07/15 01:11:56;;;;;;;8.98;1.30;;;14.10;99.90;;;;;;5071521;28;20036;-46
2022/07/15 01:14:21;;;;;;;8.57;1.70;;;14.00;99.90;;;;;;5071476;28;20037;-46
2022/07/15 01:16:47;;;;;;;7.78;1.83;;;14.00;99.90;;;;;;5070284;28;20036;-48
2022/07/15 01:19:12;;;;;;;7.15;1.20;;;14.00;99.90;;;;;;5071575;28;20154;-45
2022/07/15 01:21:38;;;;;;;6.50;1.00;;;13.90;99.90;;;;;;5056775;28;20048;-49
2022/07/15 01:24:04;;;;;;;5.72;1.13;;;13.90;99.90;;;;;;5051332;28;20561;-50
2022/07/15 01:26:30;;;;;;;7.30;1.30;;;13.80;99.90;;;;;;5051646;28;20052;-46
2022/07/15 01:28:55;;;;;;;7.72;1.17;;;13.80;99.90;;;;;;5051622;28;20171;-46
2022/07/15 01:31:21;;;;;;;4.93;0.82;;;13.80;99.90;;;;;;5051637;28;20044;-48
2022/07/15 01:33:47;;;;;;;8.93;1.40;;;13.90;99.90;;;;;;5055039;28;20112;-46
2022/07/15 01:36:12;;;;;;;9.27;1.75;;;13.80;99.90;;;;;;5055032;28;20045;-45
2022/07/15 01:38:38;;;;;;;8.18;1.45;;;13.80;99.90;;;;;;5055108;28;20452;-47
2022/07/15 01:41:04;;;;;;;7.85;1.40;;;13.80;99.90;;;;;;5055150;28;20037;-47
2022/07/15 01:43:30;;;;;;;4.35;0.73;;;13.70;99.90;;;;;;5054781;28;20045;-47
2022/07/15 01:45:55;;;;;;;5.90;1.35;;;13.60;99.90;;;;;;5070391;28;20106;-49
2022/07/15 01:51:06;;;;;;;6.97;1.00;;;13.50;99.90;;;;;;5058268;28;20143;-48
2022/07/15 01:53:32;;;;;;;5.50;0.88;;;13.60;99.90;;;;;;5074576;28;20084;-49
2022/07/15 01:55:57;;;;;;;4.93;0.70;;;13.70;99.90;;;;;;5073328;28;20510;-47
2022/07/15 01:58:23;;;;;;;7.90;1.20;;;13.60;99.90;;;;;;5073763;28;20434;-46
2022/07/15 02:00:49;;;;;;;9.00;1.33;;;13.60;99.90;;;;;;5074547;28;20041;-47
2022/07/15 02:03:15;;;;;;;7.35;0.90;;;13.50;99.90;;;;;;5073351;28;20094;-47
2022/07/15 02:05:41;;;;;;;7.85;1.55;;;13.60;99.90;;;;;;5074406;28;20036;-46
2022/07/15 02:08:07;;;;;;;4.03;1.25;;;13.60;99.90;;;;;;5074538;28;20052;-49
2022/07/15 02:10:41;;;;;;;5.30;0.90;;;13.60;99.90;;;;;;5074409;28;20131;-48
2022/07/15 02:13:08;;;;;;;6.57;1.08;;;13.50;99.90;;;;;;5074453;28;20036;-48
2022/07/15 02:15:34;;;;;;;4.43;0.90;;;13.50;99.90;;;;;;5074169;28;20102;-46
2022/07/15 02:18:00;;;;;;;6.80;1.10;;;13.50;99.90;;;;;;5074353;28;20040;-46
2022/07/15 02:20:27;;;;;;;4.75;0.90;;;13.50;99.90;;;;;;5068444;28;20048;-48
2022/07/15 02:22:53;;;;;;;2.58;0.80;;;13.50;99.90;;;;;;5053948;28;20041;-50
2022/07/15 02:25:19;;;;;;;9.10;1.60;;;13.30;99.90;;;;;;5053703;28;20076;-48
2022/07/15 02:27:45;;;;;;;5.18;0.90;;;13.30;99.90;;;;;;5053906;28;20079;-49
2022/07/15 02:30:11;;;;;;;4.63;1.15;;;13.30;99.90;;;;;;5054135;28;20120;-50
2022/07/15 02:32:37;;;;;;;5.53;1.20;;;13.30;99.90;;;;;;5054146;28;20385;-49
2022/07/15 02:35:03;;;;;;;7.03;1.10;;;13.30;99.90;;;;;;5069463;28;20063;-47
2022/07/15 02:37:29;;;;;;;5.97;1.00;;;13.20;99.90;;;;;;5053842;28;20053;-50
2022/07/15 02:39:54;;;;;;;5.88;1.10;;;13.20;99.90;;;;;;5052681;28;20072;-46
2022/07/15 02:42:20;;;;;;;4.82;1.23;;;13.20;99.90;;;;;;5053936;28;20397;-46
2022/07/15 02:44:46;;;;;;;4.70;1.13;;;13.10;99.90;;;;;;5053581;28;20186;-46
2022/07/15 02:47:11;;;;;;;7.53;1.20;;;13.10;99.90;;;;;;5053662;28;20099;-46
2022/07/15 02:49:37;;;;;;;6.20;1.13;;;13.00;99.90;;;;;;5053396;28;20041;-47
2022/07/15 02:52:03;;;;;;;6.00;1.10;;;13.10;99.90;;;;;;5064724;28;20122;-47
2022/07/15 02:54:28;;;;;;;7.50;1.05;;;13.00;99.90;;;;;;5073148;28;20036;-47
2022/07/15 02:56:54;;;;;;;5.70;1.20;;;13.00;99.90;;;;;;5073601;28;20055;-46
2022/07/15 02:59:20;;;;;;;4.85;1.10;;;13.00;99.90;;;;;;5072259;28;20055;-47
2022/07/15 03:01:45;;;;;;;4.05;1.05;;;13.00;99.90;;;;;;5072281;28;20041;-48
2022/07/15 03:04:11;;;;;;;5.53;1.15;;;13.00;99.90;;;;;;5072005;28;20052;-46
2022/07/15 03:06:36;;;;;;;5.32;1.20;;;13.00;99.90;;;;;;5073358;28;20032;-46
2022/07/15 03:09:03;;;;;;;5.93;1.30;;;13.00;99.90;;;;;;5073488;28;20111;-46
2022/07/15 03:11:29;;;;;;;4.80;1.02;;;13.10;99.90;;;;;;5073143;28;20043;-46
2022/07/15 03:13:54;;;;;;;6.13;1.10;;;13.00;99.90;;;;;;5073139;28;20044;-47
2022/07/15 03:16:20;;;;;;;4.95;1.08;;;13.00;99.90;;;;;;5073232;28;20047;-46
2022/07/15 03:18:46;;;;;;;6.18;1.10;;;13.00;99.90;;;;;;5072990;28;20055;-45
2022/07/15 03:21:11;;;;;;;4.28;1.02;;;12.90;99.90;;;;;;5061971;28;20037;-46
2022/07/15 03:23:37;;;;;;;5.90;1.00;;;12.90;99.90;;;;;;5052930;28;20037;-48
2022/07/15 03:26:03;;;;;;;5.53;1.20;;;12.90;99.90;;;;;;5053018;28;20049;-48
2022/07/15 03:28:28;;;;;;;5.85;1.52;;;13.00;99.90;;;;;;5052857;28;20041;-46
2022/07/15 03:30:54;;;;;;;4.90;1.13;;;12.90;99.90;;;;;;5052755;28;20045;-48
2022/07/15 03:33:19;;;;;;;3.38;0.98;;;13.00;99.90;;;;;;5053059;28;20047;-47
2022/07/15 03:35:45;;;;;;;6.45;1.63;;;12.90;99.90;;;;;;5068203;28;20044;-46
2022/07/15 03:38:11;;;;;;;6.13;1.33;;;12.90;99.90;;;;;;5067983;28;20048;-46
2022/07/15 03:40:37;;;;;;;5.30;1.00;;;12.90;99.90;;;;;;5052693;28;20052;-51
2022/07/15 03:43:03;;;;;;;2.42;0.88;;;12.90;99.90;;;;;;5052689;28;20040;-50
2022/07/15 03:45:28;;;;;;;5.03;0.95;;;12.90;99.90;;;;;;5052676;28;20124;-49
2022/07/15 03:47:54;;;;;;;3.83;0.95;;;13.00;99.90;;;;;;5052605;28;20045;-46
2022/07/15 03:50:20;;;;;;;6.00;1.10;;;13.10;99.90;;;;;;5052726;28;20045;-48
2022/07/15 03:52:45;;;;;;;6.78;1.45;;;13.10;99.90;;;;;;5070153;28;20032;-46
2022/07/15 03:55:11;;;;;;;4.30;1.40;;;13.10;99.90;;;;;;5070883;28;20074;-50
2022/07/15 03:57:37;;;;;;;4.82;1.25;;;13.20;99.90;;;;;;5072480;28;20414;-47
2022/07/15 04:00:04;;;;;;;6.05;1.20;;;13.20;99.90;;;;;;5072388;28;20044;-46
2022/07/15 04:02:29;;;;;;;5.55;1.10;;;13.20;99.90;;;;;;5071105;28;20087;-46
2022/07/15 04:04:55;;;;;;;3.88;1.00;;;13.20;99.90;;;;;;5072387;28;20077;-46
2022/07/15 04:07:20;;;;;;;4.50;1.25;;;13.10;99.90;;;;;;5072368;28;20064;-49
2022/07/15 04:09:46;;;;;;;7.43;1.17;;;12.80;99.90;;;;;;5072360;28;20040;-47
2022/07/15 04:12:12;;;;;;;5.07;1.23;;;12.90;99.90;;;;;;5072539;28;20071;-46
2022/07/15 04:14:37;;;;;;;6.47;1.20;;;12.90;99.90;;;;;;5072128;28;21706;-47
2022/07/15 04:17:03;;;;;;;6.18;0.90;;;13.00;99.90;;;;;;5072151;28;20043;-46
2022/07/15 04:19:29;;;;;;;6.95;1.15;;;12.80;99.90;;;;;;5072161;28;20055;-50
2022/07/15 04:21:55;;;;;;;4.40;1.08;;;12.90;99.90;;;;;;5054834;28;20532;-50
2022/07/15 04:24:21;;;;;;;4.50;1.00;;;12.90;99.90;;;;;;5051780;28;20077;-47
2022/07/15 04:26:46;;;;;;;4.35;0.88;;;13.00;99.90;;;;;;5052343;28;20080;-46
2022/07/15 04:29:12;;;;;;;3.10;0.80;;;13.00;99.90;;;;;;5051898;28;20044;-48
2022/07/15 04:31:37;;;;;;;4.80;1.20;;;13.20;99.90;;;;;;5067625;28;20044;-48
2022/07/15 04:34:03;;;;;;;3.33;0.80;;;13.30;99.90;;;;;;5052242;28;20049;-48
2022/07/15 04:36:29;;;;;;;4.65;1.17;;;13.30;99.90;;;;;;5052300;28;20485;-49
2022/07/15 04:38:55;;;;;;;5.35;0.82;;;13.40;99.90;;;;;;5052140;28;20128;-46
2022/07/15 04:41:20;;;;;;;6.13;0.90;;;13.40;99.90;;;;;;5052264;28;20033;-47
2022/07/15 04:43:46;;;;;;;4.50;0.80;;;13.50;99.90;;;;;;5067336;28;20033;-47
2022/07/15 04:46:12;;;;;;;5.25;1.02;;;13.50;99.90;;;;;;5051764;28;20043;-47
2022/07/15 04:51:22;;;;;;;2.65;0.70;;;13.60;99.90;;;;;;5057570;28;20043;-47
2022/07/15 04:53:48;;;;;;;5.85;1.05;;;13.60;99.90;;;;;;5070436;28;20439;-46
2022/07/15 04:56:15;;;;;;;7.28;1.02;;;13.60;99.90;;;;;;5070523;28;20131;-49
2022/07/15 04:58:41;;;;;;;11.75;1.30;;;13.60;99.90;;;;;;5072073;28;20036;-47
2022/07/15 05:01:06;;;;;;;5.63;1.05;;;13.50;99.90;;;;;;5071872;28;20045;-50
2022/07/15 05:03:32;;;;;;;5.90;1.05;;;13.50;99.90;;;;;;5071907;28;20037;-48
2022/07/15 05:05:58;;;;;;;9.10;1.58;;;13.50;99.90;;;;;;5071656;28;20214;-47
2022/07/15 05:08:23;;;;;;;3.85;0.95;;;13.40;99.90;;;;;;5075013;28;20032;-49
2022/07/15 05:10:49;;;;;;;3.78;0.90;;;13.40;99.90;;;;;;5075793;28;20047;-47
2022/07/15 05:13:15;;;;;;;4.30;0.82;;;13.40;99.90;;;;;;5075823;28;20056;-46
2022/07/15 05:15:40;;;;;;;4.20;0.90;;;13.50;99.90;;;;;;5075371;28;20062;-46
2022/07/15 05:18:06;;;;;;;6.75;1.17;;;13.60;99.90;;;;;;5075492;28;20037;-49
2022/07/15 05:20:32;;;;;;;5.57;0.82;;;13.70;99.90;;;;;;5069831;28;20048;-46
2022/07/15 05:22:57;;;;;;;3.72;0.90;;;13.80;99.90;;;;;;5055157;28;20041;-47
2022/07/15 05:25:23;;;;;;;5.13;0.82;;;13.70;99.90;;;;;;5070297;28;20144;-47
2022/07/15 05:27:49;;;;;;;5.25;1.75;;;13.80;99.90;;;;;;5055540;28;20069;-46
2022/07/15 05:30:16;;;;;;;2.95;0.90;;;13.80;99.90;;;;;;5055271;28;20056;-46
2022/07/15 05:32:42;;;;;;;7.72;1.70;;;13.70;99.90;;;;;;5055149;28;20485;-48
2022/07/15 05:35:08;;;;;;;5.28;1.42;;;13.90;99.90;;;;;;5054968;28;20037;-46
2022/07/15 05:37:38;;;;;;;6.63;0.90;;;13.80;99.90;;;;;;5055270;28;20044;-50
2022/07/15 05:40:06;;;;;;;3.38;0.90;;;13.80;99.90;;;;;;5053985;28;20048;-46
2022/07/15 05:42:32;;;;;;;6.90;1.00;;;13.90;99.90;;;;;;5054364;28;20056;-48
2022/07/15 05:44:58;;;;;;;4.38;1.10;;;13.90;99.90;;;;;;5054335;28;20159;-47
2022/07/15 05:47:24;;;;;;;5.40;0.90;;;13.90;99.90;;;;;;5069346;28;20755;-46
2022/07/15 05:49:49;;;;;;;3.75;0.90;;;13.90;99.90;;;;;;5054032;28;20093;-46
2022/07/15 05:52:15;;;;;;;7.03;1.08;;;14.00;99.90;;;;;;5067257;28;20036;-46
2022/07/15 05:54:40;;;;;;;4.10;0.80;;;13.90;99.90;;;;;;5073894;28;20040;-47
2022/07/15 05:57:06;;;;;;;4.90;1.17;;;14.00;99.90;;;;;;5074148;28;20067;-46
2022/07/15 05:59:32;;;;;;;5.82;1.08;;;14.10;99.90;;;;;;5074119;28;20072;-46
2022/07/15 06:01:58;;;;;;;7.40;1.15;;;14.10;99.90;;;;;;5072411;28;20040;-47
2022/07/15 06:04:26;;;;;;;5.35;0.90;;;14.10;99.90;;;;;;5056937;28;20525;-46
2022/07/15 06:06:53;;;;;;;6.10;0.90;;;14.00;99.90;;;;;;5033568;28;20056;-58
2022/07/15 06:09:19;;;;;;;6.95;0.90;;;14.10;99.90;;;;;;5033606;28;20117;-59
2022/07/15 06:11:45;;;;;;;3.92;1.60;;;14.20;99.90;;;;;;5033335;28;20497;-58
2022/07/15 06:14:11;;;;;;;8.85;1.60;;;14.30;99.90;;;;;;5033094;28;20113;-59
2022/07/15 06:16:37;;;;;;;4.78;1.55;;;14.40;99.90;;;;;;5033766;28;20413;-58
2022/07/15 06:19:03;;;;;;;5.30;0.98;;;14.40;99.90;;;;;;5033236;28;20144;-58
2022/07/15 06:21:30;;;;;;;2.70;0.75;;;14.50;99.90;;;;;;5047006;28;20140;-59
2022/07/15 06:23:56;;;;;;;7.03;1.20;;;14.50;99.90;;;;;;5053010;28;20092;-58
2022/07/15 06:26:21;;;;;;;3.83;0.85;;;14.50;99.90;;;;;;5053280;28;20420;-57
2022/07/15 06:28:48;;;;;;;6.28;0.90;;;14.50;99.90;;;;;;5052185;28;20091;-59
2022/07/15 06:31:13;;;;;;;7.93;1.13;;;14.60;99.90;;;;;;5068483;28;20041;-58
2022/07/15 06:33:39;;;;;;;4.40;0.85;;;14.60;99.90;;;;;;5053019;28;20051;-58
2022/07/15 06:36:05;;;;;;;4.20;0.98;;;14.60;99.90;;;;;;5043906;28;20174;-58
2022/07/15 06:38:32;;;;;;;4.43;0.82;;;14.70;99.90;;;;;;5043211;28;20102;-58
2022/07/15 06:40:58;;;;;;;6.75;1.15;;;14.70;99.90;;;;;;5056449;28;20124;-58
2022/07/15 06:43:23;;;;;;;5.90;0.93;;;14.80;99.90;;;;;;5033047;28;20171;-59
2022/07/15 06:45:49;;;;;;;4.72;1.20;;;14.90;99.90;;;;;;5033079;28;20049;-58
2022/07/15 06:48:15;;;;;;;4.82;1.08;;;14.90;99.90;;;;;;5033172;28;20099;-58
2022/07/15 06:50:41;;;;;;;3.53;0.98;;;15.00;99.90;;;;;;5031809;28;20045;-59
2022/07/15 06:53:06;;;;;;;4.43;1.05;;;15.10;99.90;;;;;;5072818;28;20051;-59
2022/07/15 06:55:32;;;;;;;7.40;0.90;;;15.50;99.90;;;;;;5073047;28;20481;-59
2022/07/15 06:57:58;;;;;;;5.30;0.82;;;15.60;99.90;;;;;;5071658;28;20048;-59
2022/07/15 07:00:23;;;;;;;4.72;1.15;;;15.70;99.90;;;;;;5072558;28;20443;-58
2022/07/15 07:02:49;;;;;;;6.22;1.00;;;15.80;99.90;;;;;;5072668;28;20120;-60
2022/07/15 07:05:15;;;;;;;4.32;0.90;;;16.00;99.90;;;;;;5070990;28;20511;-58
2022/07/15 07:07:41;;;;;;;5.28;0.93;;;16.20;99.90;;;;;;5072622;28;20064;-58
2022/07/15 07:10:07;;;;;;;4.85;1.10;;;16.40;99.90;;;;;;5072426;28;20483;-59
2022/07/15 07:12:32;;;;;;;2.88;0.70;;;16.40;99.90;;;;;;5071175;28;20041;-58
2022/07/15 07:15:00;;;;;;;5.90;0.70;;;16.40;99.90;;;;;;5072095;28;20040;-58
2022/07/15 07:17:26;;;;;;;5.75;0.90;;;16.20;99.90;;;;;;5072489;28;20051;-59
2022/07/15 07:19:52;;;;;;;5.68;0.90;;;15.90;99.90;;;;;;5071959;28;20041;-59
2022/07/15 07:22:18;;;;;;;3.70;0.93;;;15.70;99.90;;;;;;5052098;28;20472;-58
2022/07/15 07:24:44;;;;;;;2.75;0.68;;;15.60;99.90;;;;;;5051984;28;20450;-58
2022/07/15 07:27:10;;;;;;;6.28;0.80;;;15.90;99.90;;;;;;5052247;28;20041;-59
2022/07/15 07:29:36;;;;;;;9.57;1.00;;;15.90;99.90;;;;;;5051596;28;20048;-58
2022/07/15 07:32:02;;;;;;;9.23;1.60;;;16.00;99.90;;;;;;5052066;28;20418;-59
2022/07/15 07:34:29;;;;;;;5.60;0.88;;;16.00;99.90;;;;;;5052001;28;20106;-58
2022/07/15 07:36:55;;;;;;;5.20;0.90;;;16.30;99.90;;;;;;5052036;28;20053;-59
2022/07/15 07:39:20;;;;;;;3.63;0.70;;;16.30;99.90;;;;;;5052082;28;20087;-59
2022/07/15 07:41:46;;;;;;;4.57;0.80;;;16.40;99.90;;;;;;5052111;28;20515;-57
2022/07/15 07:44:12;;;;;;;2.83;0.57;;;16.50;99.90;;;;;;5051825;28;20040;-58
2022/07/15 07:46:37;;;;;;;2.42;0.65;;;16.50;99.90;;;;;;5051721;28;20071;-58
2022/07/15 07:49:03;;;;;;;5.38;0.90;;;16.60;99.90;;;;;;5051420;28;20078;-57
2022/07/15 07:51:29;;;;;;;4.05;0.60;;;16.60;99.90;;;;;;5058217;28;20449;-61
2022/07/15 07:53:55;;;;;;;6.47;0.98;;;16.70;99.90;;;;;;5071162;28;20396;-61
2022/07/15 07:56:21;;;;;;;4.50;0.68;;;16.60;99.90;;;;;;5071298;28;20040;-60
2022/07/15 07:58:47;;;;;;;6.35;1.05;;;16.10;99.90;;;;;;5071433;28;20120;-60
2022/07/15 08:01:12;;;;;;;4.20;0.70;;;15.60;99.90;;;;;;5070053;28;20055;-59
2022/07/15 08:03:38;;;;;;;3.97;0.70;;;15.30;99.90;;;;;;5071084;28;20559;-59
2022/07/15 08:06:04;;;;;;;2.50;0.60;;;15.10;99.90;;;;;;5071066;28;20764;-56
2022/07/15 08:08:29;;;;;;;4.50;0.80;;;15.10;99.90;;;;;;5071088;28;20498;-57
2022/07/15 08:10:56;;;;;;;3.25;0.88;;;14.90;99.90;;;;;;5071337;28;20047;-57
2022/07/15 08:13:26;;;;;;;3.42;0.82;;;15.10;99.90;;;;;;5071441;28;20566;-57
2022/07/15 08:15:53;;;;;;;3.33;0.75;;;15.10;99.90;;;;;;5070211;28;20047;-57
2022/07/15 08:18:20;;;;;;;3.25;0.70;;;15.30;99.90;;;;;;5071290;28;20055;-57
2022/07/15 08:20:45;;;;;;;1.85;0.55;;;15.30;99.90;;;;;;5063614;28;20071;-57
2022/07/15 08:23:11;;;;;;;3.53;0.80;;;15.50;99.90;;;;;;5051161;28;20040;-56
2022/07/15 08:25:38;;;;;;;2.65;0.80;;;15.80;99.90;;;;;;5050697;28;20470;-57
2022/07/15 08:28:05;;;;;;;3.50;0.77;;;16.10;99.90;;;;;;5050882;28;20044;-56
2022/07/15 08:30:33;;;;;;;4.30;0.70;;;16.40;99.90;;;;;;5044980;28;20041;-57
2022/07/15 08:32:58;;;;;;;4.22;0.77;;;16.70;99.90;;;;;;5056494;28;20063;-57
2022/07/15 08:35:26;;;;;;;2.72;0.65;;;16.60;99.90;;;;;;5039236;28;20029;-57
2022/07/15 08:37:51;;;;;;;4.07;0.70;;;16.50;99.90;;;;;;5041843;28;20048;-56
2022/07/15 08:40:17;;;;;;;2.35;0.70;;;16.30;99.90;;;;;;5036980;28;20041;-57
2022/07/15 08:42:45;;;;;;;2.42;0.60;;;16.20;99.90;;;;;;5036008;28;20037;-57
2022/07/15 08:45:13;;;;;;;3.35;0.50;;;16.50;99.90;;;;;;5035956;28;20543;-57
2022/07/15 08:47:41;;;;;;;5.72;0.90;;;16.90;99.90;;;;;;5034906;28;20037;-57
2022/07/15 08:50:11;;;;;;;3.22;0.70;;;17.30;99.90;;;;;;5050466;28;20092;-57
2022/07/15 08:52:38;;;;;;;3.42;0.60;;;17.30;99.90;;;;;;5067975;28;20161;-57
2022/07/15 08:55:06;;;;;;;1.95;0.52;;;17.20;99.90;;;;;;5074692;28;20052;-57
2022/07/15 08:57:32;;;;;;;6.13;0.73;;;16.90;99.90;;;;;;5074481;28;20131;-57
2022/07/15 08:59:58;;;;;;;3.28;0.60;;;16.90;99.90;;;;;;5074385;28;20074;-57
2022/07/15 09:02:24;;;;;;;3.83;0.60;;;16.80;99.90;;;;;;5075746;28;20044;-59
2022/07/15 09:05:28;;;;;;;2.50;0.60;;;16.80;99.90;;;;;;5075490;28;20198;-57
2022/07/15 09:07:59;;;;;;;3.63;0.73;;;16.80;99.90;;;;;;5075119;28;20097;-58
2022/07/15 09:10:40;;;;;;;2.08;0.50;;;17.20;99.90;;;;;;5075795;28;20044;-57
2022/07/15 09:13:05;;;;;;;3.72;0.80;;;17.50;99.90;;;;;;5075504;28;20154;-59
2022/07/15 09:15:33;;;;;;;4.45;0.52;;;17.20;99.90;;;;;;5075525;28;20115;-59
2022/07/15 09:18:06;;;;;;;3.05;0.50;;;16.80;99.90;;;;;;5075467;28;20044;-57
2022/07/15 09:20:32;;;;;;;4.43;0.73;;;16.90;99.90;;;;;;5069618;28;20044;-57
2022/07/15 09:22:59;;;;;;;2.83;0.68;;;17.00;99.90;;;;;;5047988;28;20593;-57
2022/07/15 09:25:27;;;;;;;6.43;0.73;;;17.20;99.90;;;;;;5043901;28;20072;-57
2022/07/15 09:27:53;;;;;;;2.65;0.55;;;17.50;99.90;;;;;;5045766;28;20040;-57
2022/07/15 09:36:08;;;;;;;4.72;0.73;;;17.60;99.90;;;;;;5046012;28;20068;-57
2022/07/15 09:38:43;;;;;;;3.83;0.70;;;17.70;99.90;;;;;;5040727;28;20045;-57
2022/07/15 09:41:35;;;;;;;3.03;0.63;;;17.70;99.90;;;;;;5035153;28;20037;-57
2022/07/15 09:44:12;;;;;;;4.20;0.63;;;17.70;99.90;;;;;;5034804;28;20037;-58
2022/07/15 09:46:47;;;;;;;3.92;0.70;;;17.70;99.90;;;;;;5033949;28;20367;-58
2022/07/15 09:49:38;;;;;;;5.20;0.70;;;18.00;99.90;;;;;;5035139;28;20029;-58
2022/07/15 09:52:13;;;;;;;2.67;0.77;;;18.20;99.90;;;;;;5057378;28;20094;-58
2022/07/15 09:54:44;;;;;;;4.80;0.73;;;18.30;99.90;;;;;;5074763;28;20135;-56
2022/07/15 09:57:14;;;;;;;2.70;0.73;;;18.20;99.90;;;;;;5074566;28;20149;-58
2022/07/15 09:59:41;;;;;;;2.85;0.68;;;18.10;99.90;;;;;;5074447;28;20087;-57
2022/07/15 10:02:07;;;;;;;3.20;0.90;;;18.10;99.90;;;;;;5074540;28;20467;-58
2022/07/15 10:04:33;;;;;;;3.65;0.70;;;18.10;99.90;;;;;;5074550;28;20041;-58
2022/07/15 10:06:59;;;;;;;3.70;0.85;;;18.00;99.90;;;;;;5074630;28;20388;-57
2022/07/15 10:09:28;;;;;;;2.03;0.57;;;18.10;99.90;;;;;;5074338;28;20041;-57
2022/07/15 10:11:57;;;;;;;4.22;0.80;;;18.10;99.90;;;;;;5074475;28;20086;-58
2022/07/15 10:14:59;;;;;;;3.35;0.75;;;18.30;99.90;;;;;;5074229;28;20037;-57
2022/07/15 10:17:45;;;;;;;4.53;0.80;;;18.50;99.90;;;;;;5071205;28;20084;-57
2022/07/15 10:20:19;;;;;;;2.42;0.60;;;18.70;99.90;;;;;;5071075;28;20047;-57
2022/07/15 10:23:25;;;;;;;5.60;0.88;;;18.60;99.90;;;;;;5054111;28;20103;-58
2022/07/15 10:26:10;;;;;;;1.80;0.55;;;18.40;99.90;;;;;;5053857;28;20527;-57
2022/07/15 10:28:45;;;;;;;2.58;0.80;;;18.50;99.90;;;;;;5054037;28;20041;-57
2022/07/15 10:31:28;;;;;;;4.13;0.73;;;18.30;99.90;;;;;;5045545;28;20041;-57
2022/07/15 10:34:03;;;;;;;5.20;1.15;;;18.20;99.90;;;;;;5041784;28;20091;-57
2022/07/15 10:37:03;;;;;;;2.92;0.52;;;18.30;99.90;;;;;;5044090;28;20120;-57
2022/07/15 10:40:06;;;;;;;1.92;0.40;;;18.30;99.90;;;;;;5032469;28;20049;-58
2022/07/15 10:43:01;;;;;;;18.75;2.03;;;18.10;99.90;;;;;;5043646;28;20037;-57
2022/07/15 10:45:27;;;;;;;2.88;0.90;;;18.10;99.90;;;;;;5053440;28;20052;-57
2022/07/15 10:48:25;;;;;;;3.65;1.08;;;17.90;99.90;;;;;;5053733;28;20029;-57
2022/07/15 10:50:51;;;;;;;1.83;0.52;;;18.00;99.90;;;;;;5055412;28;20112;-57
2022/07/15 10:53:20;;;;;;;3.92;0.70;;;18.10;99.90;;;;;;5073730;28;20500;-57
2022/07/15 10:55:46;;;;;;;2.75;0.60;;;18.10;99.90;;;;;;5073705;28;20048;-57
2022/07/15 10:58:14;;;;;;;3.00;0.65;;;18.30;99.90;;;;;;5073266;28;20040;-57
2022/07/15 11:00:40;;;;;;;4.65;0.63;;;18.50;99.90;;;;;;5073173;28;20051;-57
2022/07/15 11:03:14;;;;;;;2.13;0.90;;;18.60;99.90;;;;;;5073353;28;20094;-57
2022/07/15 11:05:48;;;;;;;2.03;0.57;;;18.60;99.90;;;;;;5072363;28;20083;-57
2022/07/15 11:08:36;;;;;;;1.67;0.65;;;18.70;99.90;;;;;;5073243;28;20045;-57
2022/07/15 11:11:13;;;;;;;2.97;0.70;;;18.80;99.90;;;;;;5073017;28;20493;-57
2022/07/15 11:13:43;;;;;;;4.78;0.85;;;18.90;99.90;;;;;;5072080;28;20072;-59
2022/07/15 11:16:15;;;;;;;3.70;0.50;;;18.70;99.90;;;;;;5073303;28;20060;-58
2022/07/15 11:18:48;;;;;;;3.85;0.98;;;18.60;99.90;;;;;;5073397;28;20041;-58
2022/07/15 11:21:14;;;;;;;3.50;0.60;;;18.40;99.90;;;;;;5062018;28;20032;-58
2022/07/15 11:23:43;;;;;;;4.25;0.93;;;18.30;99.90;;;;;;5052764;28;20049;-58
2022/07/15 11:26:09;;;;;;;3.63;0.80;;;18.40;99.90;;;;;;5052840;28;20401;-58
2022/07/15 11:28:36;;;;;;;2.20;0.57;;;18.40;99.90;;;;;;5052901;28;20051;-58
2022/07/15 11:31:02;;;;;;;2.90;0.65;;;18.50;99.90;;;;;;5052878;28;20500;-59
2022/07/15 11:33:30;;;;;;;3.13;0.70;;;18.80;99.90;;;;;;5052891;28;20029;-59
2022/07/15 11:35:56;;;;;;;3.35;0.65;;;18.90;99.90;;;;;;5051685;28;20045;-59
2022/07/15 11:38:36;;;;;;;3.20;1.10;;;19.10;99.90;;;;;;5052720;28;20102;-59
2022/07/15 11:46:44;;;;;;;7.75;1.45;;;18.80;99.90;;;;;;5069239;28;20063;-59
2022/07/15 11:49:10;;;;;;;6.10;1.25;;;18.60;99.90;;;;;;5052651;28;20112;-59
2022/07/15 11:51:35;;;;;;;4.00;1.02;;;18.40;99.90;;;;;;5060230;28;20044;-60
2022/07/15 11:54:01;;;;;;;5.43;1.27;;;18.10;99.90;;;;;;5070649;28;20044;-59
2022/07/15 11:56:27;;;;;;;5.00;1.08;;;17.80;99.90;;;;;;5072632;28;20036;-59
2022/07/15 11:58:55;;;;;;;4.20;1.50;;;17.80;99.90;;;;;;5072451;28;20036;-59
2022/07/15 12:01:29;;;;;;;6.13;1.17;;;17.70;99.90;;;;;;5072599;28;20467;-60
2022/07/15 12:03:57;;;;;;;2.85;0.85;;;17.60;99.90;;;;;;5057605;28;20427;-59
2022/07/15 12:06:25;;;;;;;4.30;1.05;;;17.60;99.90;;;;;;5033682;28;20116;-59
2022/07/15 12:08:52;;;;;;;3.25;0.80;;;17.50;99.90;;;;;;5032292;28;20493;-59
2022/07/15 12:11:30;;;;;;;4.60;1.02;;;17.60;99.90;;;;;;5032271;28;20563;-59
2022/07/15 12:14:09;;;;;;;3.65;0.90;;;17.60;99.90;;;;;;5032580;28;20435;-59
2022/07/15 12:16:43;;;;;;;4.47;1.10;;;17.70;99.90;;;;;;5031609;28;20049;-58
2022/07/15 12:19:16;;;;;;;5.40;1.20;;;17.70;99.90;;;;;;5032107;28;20041;-59
2022/07/15 12:21:44;;;;;;;5.07;1.10;;;17.60;99.90;;;;;;5047147;28;20102;-59
2022/07/15 12:24:16;;;;;;;5.15;1.55;;;17.50;99.90;;;;;;5044463;28;20067;-59
2022/07/15 12:26:57;;;;;;;5.03;1.13;;;17.40;99.90;;;;;;5056107;28;20049;-59
2022/07/15 12:29:26;;;;;;;5.03;1.48;;;17.40;99.90;;;;;;5057024;28;20037;-59
2022/07/15 12:31:52;;;;;;;4.03;1.10;;;17.40;99.90;;;;;;5047668;28;20111;-59
2022/07/15 12:34:18;;;;;;;3.55;1.25;;;17.50;99.90;;;;;;5032059;28;20508;-59
2022/07/15 12:36:43;;;;;;;5.10;1.40;;;17.50;99.90;;;;;;5030983;28;20124;-59
2022/07/15 12:39:15;;;;;;;5.07;1.30;;;17.50;99.90;;;;;;5047271;28;20056;-59
2022/07/15 12:41:42;;;;;;;;;;;17.70;99.90;;;;;;5032274;28;20553;-59
2022/07/15 12:44:09;;;;;;;4.75;1.30;;;17.90;99.90;;;;;;5032207;28;20008;-59
2022/07/15 12:47:04;;;;;;;3.58;1.27;;;18.00;99.90;;;;;;5032040;28;20454;-59
2022/07/15 12:49:42;;;;;;;3.28;1.15;;;18.00;99.90;;;;;;5030271;28;20053;-58
2022/07/15 12:52:30;;;;;;;4.30;1.20;;;18.10;99.90;;;;;;5056114;28;20418;-59
2022/07/15 12:54:57;;;;;;;6.10;1.48;;;18.10;99.90;;;;;;5071713;28;20459;-59
2022/07/15 12:57:34;;;;;;;5.30;1.30;;;18.10;99.90;;;;;;5055904;28;20092;-59
2022/07/15 13:00:11;;;;;;;3.80;1.20;;;18.00;99.90;;;;;;5040472;28;20374;-59
2022/07/15 13:02:56;;;;;;;4.95;1.10;;;17.90;99.90;;;;;;5040428;28;20081;-59
2022/07/15 13:05:22;;;;;;;5.03;1.05;;;17.90;99.90;;;;;;5066973;28;20095;-59
2022/07/15 13:07:47;;;;;;;3.50;1.02;;;17.90;99.90;;;;;;5051373;28;20041;-58
2022/07/15 13:10:13;;;;;;;3.92;1.15;;;18.00;99.90;;;;;;5048531;28;20087;-59